Home   Weather   Sweden   Växjö   Past weeks
Flag for Sweden

Past Weather in Växjö, Sweden — Yesterday and Last 2 Weeks

Currently: 37 °F. Low clouds. (Weather station: Vaxjo Airport, Sweden). See more current weather

Past Weather in Växjö — Graph

°F

Växjö Temperature Yesterday

Maximum temperature yesterday: 41 °F (at 12:20 pm)
Minimum temperature yesterday: 36 °F (at 12:20 am)
Average temperature yesterday: 37 °F

High & Low Weather Summary for the Past Weeks

 TemperatureHumidityPressure
High57 °F (Nov 12, 10:20 am)100% (Nov 12, 6:20 pm)30.45 "Hg (Nov 12, 6:20 pm)
Low23 °F (Nov 21, 7:50 am)61% (Nov 16, 12:50 pm)29.53 "Hg (Nov 21, 1:50 am)
Average38 °F93%29.98 "Hg
* Reported Nov 12 9:20 am — Nov 27 9:20 am, Växjö. Weather by CustomWeather, © 2022

Note: Actual official high and low records may vary slightly from our data, if they occured in-between our weather recording intervals... More about our weather records

Växjö Weather History for the Previous 24 Hours

Scroll right to see more
 ConditionsComfort  
Time TempWeatherWind HumidityBarometerVisibility
9:20 am
Sun, Nov 27
37 °FLow clouds.3 mph100%30.30 "Hg6 mi
8:20 am36 °FLow clouds.3 mph100%30.33 "HgN/A
7:50 am36 °FLow clouds.3 mph100%30.33 "HgN/A
7:20 am37 °FLow clouds.3 mph100%30.33 "HgN/A
6:50 am37 °FLow clouds.3 mph100%30.33 "HgN/A
6:20 am37 °FLow clouds.3 mph100%30.33 "HgN/A
5:50 am36 °FMostly cloudy.2 mph100%30.30 "HgN/A
5:20 am36 °FMostly cloudy.2 mph100%30.33 "HgN/A
4:50 am36 °FLow clouds.3 mph100%30.33 "HgN/A
4:20 am36 °FMostly cloudy.No wind100%30.33 "Hg4 mi
3:50 am36 °FMostly cloudy.2 mph100%30.33 "HgN/A
3:20 am36 °FLow clouds.No wind100%30.33 "HgN/A
2:50 am36 °FMostly cloudy.No wind100%30.33 "Hg5 mi
2:20 am36 °FMostly cloudy.No wind100%30.36 "HgN/A
1:50 am36 °FLow clouds.No wind100%30.33 "Hg3 mi
12:20 am36 °FLow clouds.2 mph100%30.36 "Hg1 mi
11:50 pm
Sat, Nov 26
36 °FMostly cloudy.No wind100%30.36 "Hg1 mi
11:20 pm36 °FOvercast.No wind100%30.36 "Hg4 mi
10:50 pm36 °FMostly cloudy.2 mph100%30.36 "Hg3 mi
10:20 pm36 °FMostly cloudy.2 mph100%30.36 "Hg4 mi
9:50 pm37 °FLow clouds.2 mph100%30.36 "Hg5 mi
9:20 pm37 °FOvercast.3 mph100%30.36 "Hg5 mi
8:50 pm37 °FMostly cloudy.1 mph100%30.36 "Hg6 mi
8:20 pm36 °FMostly cloudy.2 mph100%30.33 "Hg6 mi
7:50 pm36 °FOvercast.No wind100%30.33 "Hg6 mi
7:20 pm36 °FLow clouds.1 mph100%30.33 "Hg6 mi
6:50 pm36 °FMostly cloudy.No wind100%30.33 "Hg3 mi
6:20 pm36 °FMostly cloudy.2 mph100%30.33 "Hg6 mi
5:50 pm36 °FMostly cloudy.2 mph100%30.33 "HgN/A
5:20 pm37 °FOvercast.3 mph100%30.33 "HgN/A
4:50 pm37 °FOvercast.1 mph100%30.33 "HgN/A
4:20 pm39 °FLow clouds.2 mph93%30.33 "HgN/A
3:50 pm39 °FLow clouds.2 mph93%30.33 "HgN/A
3:20 pm39 °FMostly cloudy.No wind93%30.33 "HgN/A
2:50 pm39 °FLow clouds.No wind93%30.33 "HgN/A
2:20 pm41 °FOvercast.3 mph87%30.33 "HgN/A
1:50 pm41 °FOvercast.3 mph87%30.33 "HgN/A
1:20 pm41 °FMore clouds than sun.1 mph87%30.30 "HgN/A
12:50 pm41 °FMostly cloudy.1 mph87%30.33 "HgN/A
12:20 pm41 °FMore clouds than sun.2 mph93%30.30 "HgN/A
11:50 am39 °FLow clouds.1 mph93%30.30 "HgN/A
11:20 am39 °FLow clouds.3 mph93%30.30 "HgN/A
10:50 am39 °FLow clouds.1 mph93%30.30 "HgN/A
10:20 am39 °FMostly cloudy.No wind93%30.30 "HgN/A
Weather by CustomWeather, © 2022

See weather overview